sensor_id;sensor_type;location;lat;lon;timestamp;pressure;altitude;pressure_sealevel;temperature;humidity
16355;BME280;8287;51.644;8.494;2023-05-22T00:00:28;100203.41;;;19.46;96.34
16355;BME280;8287;51.644;8.494;2023-05-22T00:02:55;100201.41;;;19.39;96.60
16355;BME280;8287;51.644;8.494;2023-05-22T00:05:23;100200.97;;;19.34;96.85
16355;BME280;8287;51.644;8.494;2023-05-22T00:07:50;100197.94;;;19.39;95.54
16355;BME280;8287;51.644;8.494;2023-05-22T00:10:17;100201.81;;;19.41;95.02
16355;BME280;8287;51.644;8.494;2023-05-22T00:12:43;100199.19;;;19.45;94.51
16355;BME280;8287;51.644;8.494;2023-05-22T00:15:10;100194.94;;;19.44;94.47
16355;BME280;8287;51.644;8.494;2023-05-22T00:17:37;100197.28;;;19.45;95.08
16355;BME280;8287;51.644;8.494;2023-05-22T00:20:05;100191.13;;;19.45;95.79
16355;BME280;8287;51.644;8.494;2023-05-22T00:22:36;100193.00;;;19.44;96.03
16355;BME280;8287;51.644;8.494;2023-05-22T00:25:03;100189.56;;;19.44;95.80
16355;BME280;8287;51.644;8.494;2023-05-22T00:27:30;100186.09;;;19.43;95.83
16355;BME280;8287;51.644;8.494;2023-05-22T00:29:57;100188.78;;;19.43;96.27
16355;BME280;8287;51.644;8.494;2023-05-22T00:32:24;100181.81;;;19.39;96.55
16355;BME280;8287;51.644;8.494;2023-05-22T00:34:50;100181.50;;;19.44;95.82
16355;BME280;8287;51.644;8.494;2023-05-22T00:37:17;100182.66;;;19.43;95.80
16355;BME280;8287;51.644;8.494;2023-05-22T00:39:47;100173.03;;;19.42;95.95
16355;BME280;8287;51.644;8.494;2023-05-22T00:42:14;100178.00;;;19.40;96.73
16355;BME280;8287;51.644;8.494;2023-05-22T00:44:41;100174.06;;;19.30;97.79
16355;BME280;8287;51.644;8.494;2023-05-22T00:47:07;100167.75;;;19.19;99.86
16355;BME280;8287;51.644;8.494;2023-05-22T00:49:34;100165.84;;;19.20;99.94
16355;BME280;8287;51.644;8.494;2023-05-22T00:52:01;100166.56;;;19.17;100.00
16355;BME280;8287;51.644;8.494;2023-05-22T00:54:29;100167.28;;;19.14;100.00
16355;BME280;8287;51.644;8.494;2023-05-22T00:56:57;100163.50;;;19.18;100.00
16355;BME280;8287;51.644;8.494;2023-05-22T00:59:25;100152.50;;;19.27;100.00
16355;BME280;8287;51.644;8.494;2023-05-22T01:01:52;100158.72;;;19.34;99.07
16355;BME280;8287;51.644;8.494;2023-05-22T01:04:18;100159.56;;;19.38;98.33
16355;BME280;8287;51.644;8.494;2023-05-22T01:06:45;100167.78;;;19.52;96.63
16355;BME280;8287;51.644;8.494;2023-05-22T01:09:12;100164.44;;;19.62;95.48
16355;BME280;8287;51.644;8.494;2023-05-22T01:11:43;100164.50;;;19.66;94.90
16355;BME280;8287;51.644;8.494;2023-05-22T01:14:22;100161.41;;;19.67;94.78
16355;BME280;8287;51.644;8.494;2023-05-22T01:16:54;100154.53;;;19.70;94.34
16355;BME280;8287;51.644;8.494;2023-05-22T01:19:42;100155.19;;;19.60;95.40
16355;BME280;8287;51.644;8.494;2023-05-22T01:22:29;100155.50;;;19.55;94.63
16355;BME280;8287;51.644;8.494;2023-05-22T01:25:12;100153.56;;;19.52;94.27
16355;BME280;8287;51.644;8.494;2023-05-22T01:27:59;100160.00;;;19.44;94.82
16355;BME280;8287;51.644;8.494;2023-05-22T01:30:43;100163.44;;;19.44;94.38
16355;BME280;8287;51.644;8.494;2023-05-22T01:33:13;100151.84;;;19.37;94.57
16355;BME280;8287;51.644;8.494;2023-05-22T01:38:09;100158.13;;;19.18;96.44
16355;BME280;8287;51.644;8.494;2023-05-22T01:40:36;100156.66;;;19.21;96.34
16355;BME280;8287;51.644;8.494;2023-05-22T01:43:04;100155.50;;;19.22;95.93
16355;BME280;8287;51.644;8.494;2023-05-22T01:45:30;100156.97;;;19.16;96.23
16355;BME280;8287;51.644;8.494;2023-05-22T01:47:58;100154.19;;;19.09;97.28
16355;BME280;8287;51.644;8.494;2023-05-22T01:50:25;100156.44;;;19.07;97.27
16355;BME280;8287;51.644;8.494;2023-05-22T01:52:55;100159.13;;;19.07;97.23
16355;BME280;8287;51.644;8.494;2023-05-22T01:55:29;100166.06;;;19.08;96.85
16355;BME280;8287;51.644;8.494;2023-05-22T01:58:10;100169.59;;;19.15;96.35
16355;BME280;8287;51.644;8.494;2023-05-22T02:00:39;100166.06;;;19.08;97.20
16355;BME280;8287;51.644;8.494;2023-05-22T02:03:12;100168.06;;;19.14;96.27
16355;BME280;8287;51.644;8.494;2023-05-22T02:05:42;100163.16;;;19.20;95.28
16355;BME280;8287;51.644;8.494;2023-05-22T02:08:11;100162.84;;;19.25;95.24
16355;BME280;8287;51.644;8.494;2023-05-22T02:10:39;100159.34;;;19.21;95.50
16355;BME280;8287;51.644;8.494;2023-05-22T02:13:07;100150.81;;;19.15;96.88
16355;BME280;8287;51.644;8.494;2023-05-22T02:15:34;100147.66;;;19.10;97.09
16355;BME280;8287;51.644;8.494;2023-05-22T02:18:01;100147.84;;;19.20;95.16
16355;BME280;8287;51.644;8.494;2023-05-22T02:20:29;100152.47;;;19.23;94.32
16355;BME280;8287;51.644;8.494;2023-05-22T02:22:55;100140.41;;;19.14;95.45
16355;BME280;8287;51.644;8.494;2023-05-22T02:25:22;100134.53;;;19.05;96.31
16355;BME280;8287;51.644;8.494;2023-05-22T02:27:48;100140.75;;;19.09;96.14
16355;BME280;8287;51.644;8.494;2023-05-22T02:30:15;100134.31;;;19.17;94.74
16355;BME280;8287;51.644;8.494;2023-05-22T02:32:41;100138.63;;;19.21;94.06
16355;BME280;8287;51.644;8.494;2023-05-22T02:35:09;100136.50;;;19.08;95.73
16355;BME280;8287;51.644;8.494;2023-05-22T02:37:37;100134.78;;;18.93;96.96
16355;BME280;8287;51.644;8.494;2023-05-22T02:40:05;100136.28;;;18.90;97.65
16355;BME280;8287;51.644;8.494;2023-05-22T02:42:31;100132.00;;;18.86;97.94
16355;BME280;8287;51.644;8.494;2023-05-22T02:44:58;100136.63;;;18.89;97.44
16355;BME280;8287;51.644;8.494;2023-05-22T02:47:25;100128.63;;;18.92;97.02
16355;BME280;8287;51.644;8.494;2023-05-22T02:49:51;100133.34;;;18.99;96.83
16355;BME280;8287;51.644;8.494;2023-05-22T02:52:18;100121.34;;;18.93;96.30
16355;BME280;8287;51.644;8.494;2023-05-22T02:54:46;100125.97;;;18.96;95.82
16355;BME280;8287;51.644;8.494;2023-05-22T02:57:13;100125.59;;;18.94;96.63
16355;BME280;8287;51.644;8.494;2023-05-22T02:59:39;100112.75;;;18.80;98.38
16355;BME280;8287;51.644;8.494;2023-05-22T03:02:06;100110.00;;;18.77;98.33
16355;BME280;8287;51.644;8.494;2023-05-22T03:04:33;100116.19;;;18.81;97.25
16355;BME280;8287;51.644;8.494;2023-05-22T03:07:02;100115.06;;;18.82;97.95
16355;BME280;8287;51.644;8.494;2023-05-22T03:09:29;100113.50;;;18.81;97.75
16355;BME280;8287;51.644;8.494;2023-05-22T03:11:57;100107.72;;;18.79;97.82
16355;BME280;8287;51.644;8.494;2023-05-22T03:14:24;100113.50;;;18.81;97.78
16355;BME280;8287;51.644;8.494;2023-05-22T03:16:50;100118.53;;;18.82;98.04
16355;BME280;8287;51.644;8.494;2023-05-22T03:19:18;100106.97;;;18.78;97.79
16355;BME280;8287;51.644;8.494;2023-05-22T03:21:45;100112.34;;;18.78;98.51
16355;BME280;8287;51.644;8.494;2023-05-22T03:24:14;100113.09;;;18.79;98.47
16355;BME280;8287;51.644;8.494;2023-05-22T03:26:41;100104.28;;;18.78;98.25
16355;BME280;8287;51.644;8.494;2023-05-22T03:29:09;100107.31;;;18.77;98.48
16355;BME280;8287;51.644;8.494;2023-05-22T03:31:35;100112.69;;;18.77;98.78
16355;BME280;8287;51.644;8.494;2023-05-22T03:34:02;100112.28;;;18.75;98.72
16355;BME280;8287;51.644;8.494;2023-05-22T03:36:30;100109.56;;;18.71;99.32
16355;BME280;8287;51.644;8.494;2023-05-22T03:38:58;100108.78;;;18.71;100.00
16355;BME280;8287;51.644;8.494;2023-05-22T03:41:25;100101.84;;;18.70;99.46
16355;BME280;8287;51.644;8.494;2023-05-22T03:43:51;100108.06;;;18.74;99.67
16355;BME280;8287;51.644;8.494;2023-05-22T03:46:19;100100.78;;;18.74;99.67
16355;BME280;8287;51.644;8.494;2023-05-22T03:48:45;100109.66;;;18.78;99.81
16355;BME280;8287;51.644;8.494;2023-05-22T03:51:12;100101.16;;;18.76;99.54
16355;BME280;8287;51.644;8.494;2023-05-22T03:53:39;100099.63;;;18.75;100.00
16355;BME280;8287;51.644;8.494;2023-05-22T03:56:06;100100.72;;;18.71;100.00
16355;BME280;8287;51.644;8.494;2023-05-22T03:58:32;100093.84;;;18.73;100.00
16355;BME280;8287;51.644;8.494;2023-05-22T04:00:59;100103.09;;;18.76;100.00
16355;BME280;8287;51.644;8.494;2023-05-22T04:03:27;100100.78;;;18.74;100.00
16355;BME280;8287;51.644;8.494;2023-05-22T04:05:53;100096.53;;;18.73;100.00
16355;BME280;8287;51.644;8.494;2023-05-22T04:08:21;100099.97;;;18.70;100.00
16355;BME280;8287;51.644;8.494;2023-05-22T04:10:47;100096.09;;;18.68;100.00
16355;BME280;8287;51.644;8.494;2023-05-22T04:13:15;100091.06;;;18.66;100.00
16355;BME280;8287;51.644;8.494;2023-05-22T04:15:42;100089.16;;;18.67;100.00
16355;BME280;8287;51.644;8.494;2023-05-22T04:18:10;100093.81;;;18.70;100.00
16355;BME280;8287;51.644;8.494;2023-05-22T04:20:38;100104.63;;;18.77;99.56
16355;BME280;8287;51.644;8.494;2023-05-22T04:23:05;100110.41;;;18.79;99.94
16355;BME280;8287;51.644;8.494;2023-05-22T04:25:32;100101.56;;;18.75;100.00
16355;BME280;8287;51.644;8.494;2023-05-22T04:28:00;100108.09;;;18.77;100.00
16355;BME280;8287;51.644;8.494;2023-05-22T04:30:28;100101.97;;;18.77;100.00
16355;BME280;8287;51.644;8.494;2023-05-22T04:32:58;100102.69;;;18.74;100.00
16355;BME280;8287;51.644;8.494;2023-05-22T04:35:24;100107.72;;;18.79;100.00
16355;BME280;8287;51.644;8.494;2023-05-22T04:37:55;100104.00;;;18.87;99.18
16355;BME280;8287;51.644;8.494;2023-05-22T04:40:21;100118.72;;;18.96;97.78
16355;BME280;8287;51.644;8.494;2023-05-22T04:42:48;100117.25;;;19.02;96.32
16355;BME280;8287;51.644;8.494;2023-05-22T04:45:18;100114.19;;;19.04;95.41
16355;BME280;8287;51.644;8.494;2023-05-22T04:47:45;100106.03;;;18.97;95.60
16355;BME280;8287;51.644;8.494;2023-05-22T04:50:12;100110.56;;;18.89;96.93
16355;BME280;8287;51.644;8.494;2023-05-22T04:52:38;100117.75;;;18.82;98.21
16355;BME280;8287;51.644;8.494;2023-05-22T04:55:07;100118.47;;;18.79;98.89
16355;BME280;8287;51.644;8.494;2023-05-22T04:57:36;100114.94;;;18.71;100.00
16355;BME280;8287;51.644;8.494;2023-05-22T05:00:03;100111.03;;;18.69;100.00
16355;BME280;8287;51.644;8.494;2023-05-22T05:02:33;100110.00;;;18.77;100.00
16355;BME280;8287;51.644;8.494;2023-05-22T05:05:00;100112.06;;;18.87;100.00
16355;BME280;8287;51.644;8.494;2023-05-22T05:07:26;100126.78;;;18.96;99.80
16355;BME280;8287;51.644;8.494;2023-05-22T05:09:53;100120.00;;;19.09;98.05
16355;BME280;8287;51.644;8.494;2023-05-22T05:12:21;100122.09;;;19.19;96.68
16355;BME280;8287;51.644;8.494;2023-05-22T05:14:48;100119.44;;;19.23;96.02
16355;BME280;8287;51.644;8.494;2023-05-22T05:17:14;100115.59;;;19.20;96.60
16355;BME280;8287;51.644;8.494;2023-05-22T05:19:41;100107.53;;;19.20;96.08
16355;BME280;8287;51.644;8.494;2023-05-22T05:22:07;100109.84;;;19.22;96.44
16355;BME280;8287;51.644;8.494;2023-05-22T05:24:34;100125.56;;;19.20;97.91
16355;BME280;8287;51.644;8.494;2023-05-22T05:27:00;100111.03;;;19.24;97.28
16355;BME280;8287;51.644;8.494;2023-05-22T05:29:28;100119.75;;;19.18;97.67
16355;BME280;8287;51.644;8.494;2023-05-22T05:31:55;100115.25;;;18.96;99.31
16355;BME280;8287;51.644;8.494;2023-05-22T05:34:21;100113.84;;;19.05;99.54
16355;BME280;8287;51.644;8.494;2023-05-22T05:36:49;100109.13;;;19.25;96.99
16355;BME280;8287;51.644;8.494;2023-05-22T05:39:16;100113.09;;;19.38;95.63
16355;BME280;8287;51.644;8.494;2023-05-22T05:41:43;100105.06;;;19.41;94.77
16355;BME280;8287;51.644;8.494;2023-05-22T05:44:09;100112.03;;;19.46;96.16
16355;BME280;8287;51.644;8.494;2023-05-22T05:46:37;100108.56;;;19.42;97.55
16355;BME280;8287;51.644;8.494;2023-05-22T05:49:06;100105.56;;;19.50;97.97
16355;BME280;8287;51.644;8.494;2023-05-22T05:51:34;100117.53;;;19.56;98.12
16355;BME280;8287;51.644;8.494;2023-05-22T05:54:00;100115.34;;;19.69;96.93
16355;BME280;8287;51.644;8.494;2023-05-22T05:56:27;100112.38;;;19.81;96.19
16355;BME280;8287;51.644;8.494;2023-05-22T05:58:53;100112.81;;;19.83;96.81
16355;BME280;8287;51.644;8.494;2023-05-22T06:01:20;100113.91;;;19.78;97.91
16355;BME280;8287;51.644;8.494;2023-05-22T06:03:49;100126.28;;;19.90;96.54
16355;BME280;8287;51.644;8.494;2023-05-22T06:06:16;100123.69;;;19.97;95.27
16355;BME280;8287;51.644;8.494;2023-05-22T06:08:43;100122.28;;;20.10;94.86
16355;BME280;8287;51.644;8.494;2023-05-22T06:11:10;100120.03;;;20.15;94.60
16355;BME280;8287;51.644;8.494;2023-05-22T06:13:36;100120.81;;;20.19;94.78
16355;BME280;8287;51.644;8.494;2023-05-22T06:16:03;100124.28;;;20.20;94.95
16355;BME280;8287;51.644;8.494;2023-05-22T06:18:30;100119.69;;;20.24;93.42
16355;BME280;8287;51.644;8.494;2023-05-22T06:20:58;100119.00;;;20.30;93.97
16355;BME280;8287;51.644;8.494;2023-05-22T06:23:25;100124.44;;;20.37;93.64
16355;BME280;8287;51.644;8.494;2023-05-22T06:25:51;100126.75;;;20.38;93.75
16355;BME280;8287;51.644;8.494;2023-05-22T06:28:18;100124.47;;;20.44;93.54
16355;BME280;8287;51.644;8.494;2023-05-22T06:30:44;100124.53;;;20.51;93.00
16355;BME280;8287;51.644;8.494;2023-05-22T06:33:11;100126.47;;;20.57;92.38
16355;BME280;8287;51.644;8.494;2023-05-22T06:35:38;100125.38;;;20.62;92.86
16355;BME280;8287;51.644;8.494;2023-05-22T06:38:06;100129.22;;;20.64;92.86
16355;BME280;8287;51.644;8.494;2023-05-22T06:40:33;100133.88;;;20.67;92.96
16355;BME280;8287;51.644;8.494;2023-05-22T06:43:00;100129.28;;;20.75;93.22
16355;BME280;8287;51.644;8.494;2023-05-22T06:45:27;100130.09;;;20.79;93.27
16355;BME280;8287;51.644;8.494;2023-05-22T06:47:53;100133.91;;;20.78;93.51
16355;BME280;8287;51.644;8.494;2023-05-22T06:50:20;100128.63;;;20.88;93.27
16355;BME280;8287;51.644;8.494;2023-05-22T06:52:47;100122.50;;;20.91;93.04
16355;BME280;8287;51.644;8.494;2023-05-22T06:55:15;100128.66;;;20.95;93.09
16355;BME280;8287;51.644;8.494;2023-05-22T06:57:42;100131.75;;;20.97;92.60
16355;BME280;8287;51.644;8.494;2023-05-22T07:00:10;100128.31;;;21.00;91.94
16355;BME280;8287;51.644;8.494;2023-05-22T07:02:37;100131.41;;;21.06;91.64
16355;BME280;8287;51.644;8.494;2023-05-22T07:05:04;100133.38;;;21.12;91.75
16355;BME280;8287;51.644;8.494;2023-05-22T07:07:31;100136.88;;;21.16;91.72
16355;BME280;8287;51.644;8.494;2023-05-22T07:10:02;100125.69;;;21.21;91.22
16355;BME280;8287;51.644;8.494;2023-05-22T07:12:30;100124.53;;;21.19;91.52
16355;BME280;8287;51.644;8.494;2023-05-22T07:14:57;100127.25;;;21.22;91.99
16355;BME280;8287;51.644;8.494;2023-05-22T07:17:24;100124.59;;;21.33;90.97
16355;BME280;8287;51.644;8.494;2023-05-22T07:19:51;100125.75;;;21.32;92.03
16355;BME280;8287;51.644;8.494;2023-05-22T07:22:17;100127.19;;;21.08;94.31
16355;BME280;8287;51.644;8.494;2023-05-22T07:24:44;100127.22;;;21.19;95.07
16355;BME280;8287;51.644;8.494;2023-05-22T07:27:11;100127.31;;;21.40;93.27
16355;BME280;8287;51.644;8.494;2023-05-22T07:29:39;100124.22;;;21.31;93.44
16355;BME280;8287;51.644;8.494;2023-05-22T07:32:07;100134.97;;;21.24;94.22
16355;BME280;8287;51.644;8.494;2023-05-22T07:34:33;100129.91;;;21.15;94.32
16355;BME280;8287;51.644;8.494;2023-05-22T07:37:06;100130.75;;;21.37;94.60
16355;BME280;8287;51.644;8.494;2023-05-22T07:39:32;100136.63;;;21.63;92.85
16355;BME280;8287;51.644;8.494;2023-05-22T07:41:59;100133.22;;;21.80;91.49
16355;BME280;8287;51.644;8.494;2023-05-22T07:44:25;100137.09;;;21.97;91.76
16355;BME280;8287;51.644;8.494;2023-05-22T07:46:53;100133.59;;;21.75;93.68
16355;BME280;8287;51.644;8.494;2023-05-22T07:49:20;100129.78;;;22.04;91.12
16355;BME280;8287;51.644;8.494;2023-05-22T07:51:47;100134.03;;;22.23;89.45
16355;BME280;8287;51.644;8.494;2023-05-22T07:54:14;100142.09;;;22.05;91.04
16355;BME280;8287;51.644;8.494;2023-05-22T07:56:42;100128.22;;;22.28;90.86
16355;BME280;8287;51.644;8.494;2023-05-22T07:59:09;100132.13;;;22.44;89.81
16355;BME280;8287;51.644;8.494;2023-05-22T08:01:36;100136.72;;;22.58;88.88
16355;BME280;8287;51.644;8.494;2023-05-22T08:04:04;100133.66;;;22.42;90.00
16355;BME280;8287;51.644;8.494;2023-05-22T08:06:31;100132.81;;;21.75;93.83
16355;BME280;8287;51.644;8.494;2023-05-22T08:08:59;100134.41;;;22.14;93.00
16355;BME280;8287;51.644;8.494;2023-05-22T08:11:26;100136.31;;;22.24;92.38
16355;BME280;8287;51.644;8.494;2023-05-22T08:13:53;100137.50;;;22.51;90.25
16355;BME280;8287;51.644;8.494;2023-05-22T08:16:19;100135.56;;;22.69;88.66
16355;BME280;8287;51.644;8.494;2023-05-22T08:18:46;100140.16;;;22.79;88.11
16355;BME280;8287;51.644;8.494;2023-05-22T08:21:14;100138.94;;;22.98;87.83
16355;BME280;8287;51.644;8.494;2023-05-22T08:23:40;100134.28;;;23.19;86.28
16355;BME280;8287;51.644;8.494;2023-05-22T08:26:07;100135.72;;;23.34;85.71
16355;BME280;8287;51.644;8.494;2023-05-22T08:28:33;100138.75;;;23.47;83.72
16355;BME280;8287;51.644;8.494;2023-05-22T08:31:00;100139.50;;;23.54;83.75
16355;BME280;8287;51.644;8.494;2023-05-22T08:33:27;100134.78;;;23.69;84.13
16355;BME280;8287;51.644;8.494;2023-05-22T08:35:54;100136.25;;;23.80;82.37
16355;BME280;8287;51.644;8.494;2023-05-22T08:38:22;100138.94;;;23.87;82.82
16355;BME280;8287;51.644;8.494;2023-05-22T08:40:49;100133.06;;;23.96;81.68
16355;BME280;8287;51.644;8.494;2023-05-22T08:43:19;100129.97;;;24.01;82.20
16355;BME280;8287;51.644;8.494;2023-05-22T08:45:47;100137.25;;;24.07;83.13
16355;BME280;8287;51.644;8.494;2023-05-22T08:48:22;100136.84;;;24.09;82.24
16355;BME280;8287;51.644;8.494;2023-05-22T08:50:52;100135.69;;;24.10;82.78
16355;BME280;8287;51.644;8.494;2023-05-22T08:53:23;100134.13;;;24.12;82.40
16355;BME280;8287;51.644;8.494;2023-05-22T08:55:52;100139.28;;;23.96;82.88
16355;BME280;8287;51.644;8.494;2023-05-22T08:58:19;100136.13;;;24.01;83.39
16355;BME280;8287;51.644;8.494;2023-05-22T09:00:46;100136.06;;;24.12;82.69
16355;BME280;8287;51.644;8.494;2023-05-22T09:03:13;100133.66;;;24.20;82.02
16355;BME280;8287;51.644;8.494;2023-05-22T09:05:40;100142.50;;;24.28;81.21
16355;BME280;8287;51.644;8.494;2023-05-22T09:08:06;100135.50;;;24.30;80.85
16355;BME280;8287;51.644;8.494;2023-05-22T09:10:34;100133.53;;;24.34;79.69
16355;BME280;8287;51.644;8.494;2023-05-22T09:13:02;100136.97;;;24.38;80.02
16355;BME280;8287;51.644;8.494;2023-05-22T09:15:30;100143.19;;;24.39;79.88
16355;BME280;8287;51.644;8.494;2023-05-22T09:17:57;100140.41;;;24.46;79.70
16355;BME280;8287;51.644;8.494;2023-05-22T09:20:23;100134.19;;;24.49;80.74
16355;BME280;8287;51.644;8.494;2023-05-22T09:22:50;100142.00;;;24.40;81.54
16355;BME280;8287;51.644;8.494;2023-05-22T09:25:17;100144.63;;;24.50;81.46
16355;BME280;8287;51.644;8.494;2023-05-22T09:27:45;100151.97;;;24.03;82.56
16355;BME280;8287;51.644;8.494;2023-05-22T09:30:15;100140.75;;;24.08;85.45
16355;BME280;8287;51.644;8.494;2023-05-22T09:32:41;100137.75;;;24.39;81.84
16355;BME280;8287;51.644;8.494;2023-05-22T09:35:08;100141.88;;;24.57;80.73
16355;BME280;8287;51.644;8.494;2023-05-22T09:37:36;100136.78;;;24.63;81.02
16355;BME280;8287;51.644;8.494;2023-05-22T09:40:04;100140.22;;;24.67;79.57
16355;BME280;8287;51.644;8.494;2023-05-22T09:42:32;100144.41;;;24.75;80.72
16355;BME280;8287;51.644;8.494;2023-05-22T09:45:03;100146.34;;;24.74;79.99
16355;BME280;8287;51.644;8.494;2023-05-22T09:47:29;100137.00;;;24.79;79.44
16355;BME280;8287;51.644;8.494;2023-05-22T09:49:56;100144.78;;;24.77;80.32
16355;BME280;8287;51.644;8.494;2023-05-22T09:52:24;100142.44;;;24.79;78.99
16355;BME280;8287;51.644;8.494;2023-05-22T09:54:54;100147.41;;;24.84;79.11
16355;BME280;8287;51.644;8.494;2023-05-22T09:57:23;100150.94;;;24.81;80.93
16355;BME280;8287;51.644;8.494;2023-05-22T09:59:51;100146.16;;;24.92;79.62
16355;BME280;8287;51.644;8.494;2023-05-22T10:02:21;100157.72;;;24.99;80.26
16355;BME280;8287;51.644;8.494;2023-05-22T10:04:48;100147.91;;;25.09;78.30
16355;BME280;8287;51.644;8.494;2023-05-22T10:07:17;100149.78;;;25.15;78.24
16355;BME280;8287;51.644;8.494;2023-05-22T10:09:49;100157.88;;;25.19;78.46
16355;BME280;8287;51.644;8.494;2023-05-22T10:12:20;100148.88;;;25.29;78.45
16355;BME280;8287;51.644;8.494;2023-05-22T10:14:47;100155.81;;;25.30;75.80
16355;BME280;8287;51.644;8.494;2023-05-22T10:17:14;100151.09;;;25.34;75.89
16355;BME280;8287;51.644;8.494;2023-05-22T10:19:42;100146.38;;;25.41;76.10
16355;BME280;8287;51.644;8.494;2023-05-22T10:22:10;100149.81;;;25.45;73.66
16355;BME280;8287;51.644;8.494;2023-05-22T10:24:39;100145.59;;;25.41;70.35
16355;BME280;8287;51.644;8.494;2023-05-22T10:27:06;100152.38;;;25.56;70.36
16355;BME280;8287;51.644;8.494;2023-05-22T10:29:37;100146.06;;;25.62;70.51
16355;BME280;8287;51.644;8.494;2023-05-22T10:32:13;100149.53;;;25.66;67.92
16355;BME280;8287;51.644;8.494;2023-05-22T10:34:50;100140.56;;;25.69;69.83
16355;BME280;8287;51.644;8.494;2023-05-22T10:37:40;100144.06;;;25.70;70.29
16355;BME280;8287;51.644;8.494;2023-05-22T10:40:10;100142.00;;;25.77;71.03
16355;BME280;8287;51.644;8.494;2023-05-22T10:42:38;100143.53;;;25.78;68.18
16355;BME280;8287;51.644;8.494;2023-05-22T10:45:06;100146.47;;;25.91;70.65
16355;BME280;8287;51.644;8.494;2023-05-22T10:47:33;100142.41;;;26.02;69.11
16355;BME280;8287;51.644;8.494;2023-05-22T10:50:06;100140.00;;;26.08;68.48
16355;BME280;8287;51.644;8.494;2023-05-22T10:52:34;100139.59;;;26.09;67.21
16355;BME280;8287;51.644;8.494;2023-05-22T10:55:04;100139.59;;;26.09;71.11
16355;BME280;8287;51.644;8.494;2023-05-22T10:57:32;100142.19;;;26.16;67.93
16355;BME280;8287;51.644;8.494;2023-05-22T11:00:10;100134.34;;;26.22;65.80
16355;BME280;8287;51.644;8.494;2023-05-22T11:02:41;100138.13;;;26.28;63.88
16355;BME280;8287;51.644;8.494;2023-05-22T11:05:38;100132.22;;;26.33;67.23
16355;BME280;8287;51.644;8.494;2023-05-22T11:08:34;100138.72;;;26.39;66.14
16355;BME280;8287;51.644;8.494;2023-05-22T11:11:10;100138.53;;;26.49;64.98
16355;BME280;8287;51.644;8.494;2023-05-22T11:13:38;100140.81;;;26.51;65.18
16355;BME280;8287;51.644;8.494;2023-05-22T11:16:07;100135.00;;;26.52;65.03
16355;BME280;8287;51.644;8.494;2023-05-22T11:18:34;100125.13;;;26.62;65.57
16355;BME280;8287;51.644;8.494;2023-05-22T11:21:02;100131.47;;;26.75;66.44
16355;BME280;8287;51.644;8.494;2023-05-22T11:23:32;100120.41;;;26.85;66.64
16355;BME280;8287;51.644;8.494;2023-05-22T11:26:16;100123.88;;;26.86;65.42
16355;BME280;8287;51.644;8.494;2023-05-22T11:28:45;100115.19;;;26.94;68.20
16355;BME280;8287;51.644;8.494;2023-05-22T11:31:13;100112.72;;;27.00;67.74
16355;BME280;8287;51.644;8.494;2023-05-22T11:33:40;100126.75;;;26.98;65.10
16355;BME280;8287;51.644;8.494;2023-05-22T11:36:09;100115.78;;;27.02;63.24
16355;BME280;8287;51.644;8.494;2023-05-22T11:38:36;100111.13;;;27.02;60.95
16355;BME280;8287;51.644;8.494;2023-05-22T11:41:03;100116.16;;;27.04;63.08
16355;BME280;8287;51.644;8.494;2023-05-22T11:43:30;100113.09;;;27.21;62.73
16355;BME280;8287;51.644;8.494;2023-05-22T11:45:59;100107.34;;;27.35;59.09
16355;BME280;8287;51.644;8.494;2023-05-22T11:48:27;100091.47;;;27.50;61.84
16355;BME280;8287;51.644;8.494;2023-05-22T11:50:55;100091.84;;;27.68;62.72
16355;BME280;8287;51.644;8.494;2023-05-22T11:53:23;100089.75;;;27.75;62.78
16355;BME280;8287;51.644;8.494;2023-05-22T11:55:50;100089.31;;;27.77;61.31
16355;BME280;8287;51.644;8.494;2023-05-22T11:58:20;100071.38;;;27.79;60.91
16355;BME280;8287;51.644;8.494;2023-05-22T12:00:47;100073.59;;;27.84;62.52
16355;BME280;8287;51.644;8.494;2023-05-22T12:03:13;100070.16;;;27.96;63.00
16355;BME280;8287;51.644;8.494;2023-05-22T12:05:44;100069.22;;;27.71;60.51
16355;BME280;8287;51.644;8.494;2023-05-22T12:08:11;100069.13;;;27.58;65.33
16355;BME280;8287;51.644;8.494;2023-05-22T12:10:45;100072.28;;;27.73;63.28
16355;BME280;8287;51.644;8.494;2023-05-22T12:13:11;100067.94;;;28.07;59.46
16355;BME280;8287;51.644;8.494;2023-05-22T12:15:38;100069.81;;;28.26;59.91
16355;BME280;8287;51.644;8.494;2023-05-22T12:18:07;100068.78;;;28.36;58.74
16355;BME280;8287;51.644;8.494;2023-05-22T12:20:33;100074.94;;;28.52;57.33
16355;BME280;8287;51.644;8.494;2023-05-22T12:23:00;100084.19;;;28.71;61.61
16355;BME280;8287;51.644;8.494;2023-05-22T12:25:32;100091.25;;;28.68;58.08
16355;BME280;8287;51.644;8.494;2023-05-22T12:28:03;100087.28;;;28.85;57.55
16355;BME280;8287;51.644;8.494;2023-05-22T12:30:38;100086.13;;;28.99;56.65
16355;BME280;8287;51.644;8.494;2023-05-22T12:33:11;100082.97;;;29.00;55.91
16355;BME280;8287;51.644;8.494;2023-05-22T12:35:38;100084.63;;;29.10;56.38
16355;BME280;8287;51.644;8.494;2023-05-22T12:38:06;100083.56;;;29.20;56.56
16355;BME280;8287;51.644;8.494;2023-05-22T12:40:32;100090.22;;;29.32;53.53
16355;BME280;8287;51.644;8.494;2023-05-22T12:42:59;100087.69;;;29.25;53.27
16355;BME280;8287;51.644;8.494;2023-05-22T12:45:27;100086.63;;;29.22;54.50
16355;BME280;8287;51.644;8.494;2023-05-22T12:47:54;100082.88;;;29.04;53.36
16355;BME280;8287;51.644;8.494;2023-05-22T12:50:20;100093.50;;;29.14;53.40
16355;BME280;8287;51.644;8.494;2023-05-22T12:52:47;100094.16;;;29.31;55.17
16355;BME280;8287;51.644;8.494;2023-05-22T12:55:13;100095.78;;;29.28;53.93
16355;BME280;8287;51.644;8.494;2023-05-22T12:57:40;100097.66;;;29.31;56.60
16355;BME280;8287;51.644;8.494;2023-05-22T13:00:07;100090.72;;;29.55;53.14
16355;BME280;8287;51.644;8.494;2023-05-22T13:02:35;100087.41;;;29.73;51.72
16355;BME280;8287;51.644;8.494;2023-05-22T13:05:02;100088.06;;;29.89;51.36
16355;BME280;8287;51.644;8.494;2023-05-22T13:07:29;100090.66;;;30.05;54.74